sensor_id;sensor_type;location;lat;lon;timestamp;pressure;altitude;pressure_sealevel;temperature;humidity
72414;BME280;60995;52.154;4.498;2023-07-20T00:00:47;101521.72;;;18.10;100.00
72414;BME280;60995;52.154;4.498;2023-07-20T00:03:11;101519.81;;;18.02;100.00
72414;BME280;60995;52.154;4.498;2023-07-20T00:05:32;101520.13;;;17.99;100.00
72414;BME280;60995;52.154;4.498;2023-07-20T00:07:48;101522.31;;;17.87;100.00
72414;BME280;60995;52.154;4.498;2023-07-20T00:10:08;101517.00;;;17.77;100.00
72414;BME280;60995;52.154;4.498;2023-07-20T00:12:24;101519.56;;;17.71;100.00
72414;BME280;60995;52.154;4.498;2023-07-20T00:14:40;101516.13;;;17.77;100.00
72414;BME280;60995;52.154;4.498;2023-07-20T00:16:56;101519.91;;;17.76;100.00
72414;BME280;60995;52.154;4.498;2023-07-20T00:19:13;101517.84;;;17.69;100.00
72414;BME280;60995;52.154;4.498;2023-07-20T00:21:29;101514.56;;;17.66;100.00
72414;BME280;60995;52.154;4.498;2023-07-20T00:23:45;101511.16;;;17.64;100.00
72414;BME280;60995;52.154;4.498;2023-07-20T00:26:03;101522.63;;;17.67;100.00
72414;BME280;60995;52.154;4.498;2023-07-20T00:28:19;101524.63;;;17.49;100.00
72414;BME280;60995;52.154;4.498;2023-07-20T00:30:37;101530.13;;;17.49;100.00
72414;BME280;60995;52.154;4.498;2023-07-20T00:32:54;101523.59;;;17.42;100.00
72414;BME280;60995;52.154;4.498;2023-07-20T00:35:10;101526.28;;;17.33;100.00
72414;BME280;60995;52.154;4.498;2023-07-20T00:37:27;101530.13;;;17.49;100.00
72414;BME280;60995;52.154;4.498;2023-07-20T00:39:44;101524.97;;;17.46;100.00
72414;BME280;60995;52.154;4.498;2023-07-20T00:42:01;101521.50;;;17.35;100.00
72414;BME280;60995;52.154;4.498;2023-07-20T00:44:17;101516.50;;;17.31;100.00
72414;BME280;60995;52.154;4.498;2023-07-20T00:46:33;101517.06;;;17.43;100.00
72414;BME280;60995;52.154;4.498;2023-07-20T00:48:50;101515.00;;;17.36;100.00
72414;BME280;60995;52.154;4.498;2023-07-20T00:51:07;101513.28;;;17.35;100.00
72414;BME280;60995;52.154;4.498;2023-07-20T00:53:24;101511.38;;;17.28;100.00
72414;BME280;60995;52.154;4.498;2023-07-20T00:55:40;101508.44;;;17.21;100.00
72414;BME280;60995;52.154;4.498;2023-07-20T00:57:57;101516.31;;;17.24;100.00
72414;BME280;60995;52.154;4.498;2023-07-20T01:00:15;101515.59;;;17.14;100.00
72414;BME280;60995;52.154;4.498;2023-07-20T01:02:31;101517.94;;;17.09;100.00
72414;BME280;60995;52.154;4.498;2023-07-20T01:04:47;101522.69;;;16.98;100.00
72414;BME280;60995;52.154;4.498;2023-07-20T01:07:37;101522.97;;;17.13;100.00
72414;BME280;60995;52.154;4.498;2023-07-20T01:10:05;101515.47;;;17.24;100.00
72414;BME280;60995;52.154;4.498;2023-07-20T01:12:30;101518.88;;;17.26;100.00
72414;BME280;60995;52.154;4.498;2023-07-20T01:14:51;101516.84;;;17.28;100.00
72414;BME280;60995;52.154;4.498;2023-07-20T01:17:08;101527.00;;;17.35;100.00
72414;BME280;60995;52.154;4.498;2023-07-20T01:19:24;101524.53;;;17.24;100.00
72414;BME280;60995;52.154;4.498;2023-07-20T01:22:09;101526.91;;;17.19;100.00
72414;BME280;60995;52.154;4.498;2023-07-20T01:30:35;101532.22;;;17.20;100.00
72414;BME280;60995;52.154;4.498;2023-07-20T01:32:58;101538.25;;;17.24;100.00
72414;BME280;60995;52.154;4.498;2023-07-20T01:35:19;101539.63;;;17.28;100.00
72414;BME280;60995;52.154;4.498;2023-07-20T01:37:41;101539.00;;;17.34;100.00
72414;BME280;60995;52.154;4.498;2023-07-20T01:40:00;101535.53;;;17.32;100.00
72414;BME280;60995;52.154;4.498;2023-07-20T01:42:17;101527.91;;;17.44;100.00
72414;BME280;60995;52.154;4.498;2023-07-20T01:44:33;101520.72;;;17.60;100.00
72414;BME280;60995;52.154;4.498;2023-07-20T01:46:50;101524.28;;;17.52;100.00
72414;BME280;60995;52.154;4.498;2023-07-20T01:49:06;101526.41;;;17.66;100.00
72414;BME280;60995;52.154;4.498;2023-07-20T01:51:22;101524.00;;;17.63;100.00
72414;BME280;60995;52.154;4.498;2023-07-20T01:53:38;101524.16;;;17.62;100.00
72414;BME280;60995;52.154;4.498;2023-07-20T01:55:56;101520.41;;;17.71;100.00
72414;BME280;60995;52.154;4.498;2023-07-20T01:58:13;101520.94;;;17.66;100.00
72414;BME280;60995;52.154;4.498;2023-07-20T02:00:29;101521.59;;;17.60;100.00
72414;BME280;60995;52.154;4.498;2023-07-20T02:02:46;101517.28;;;17.58;100.00
72414;BME280;60995;52.154;4.498;2023-07-20T02:05:02;101522.97;;;17.73;100.00
72414;BME280;60995;52.154;4.498;2023-07-20T02:07:19;101522.31;;;17.71;100.00
72414;BME280;60995;52.154;4.498;2023-07-20T02:09:35;101525.34;;;17.59;100.00
72414;BME280;60995;52.154;4.498;2023-07-20T02:11:51;101515.19;;;17.43;100.00
72414;BME280;60995;52.154;4.498;2023-07-20T02:14:07;101527.56;;;17.56;100.00
72414;BME280;60995;52.154;4.498;2023-07-20T02:16:24;101520.72;;;17.60;100.00
72414;BME280;60995;52.154;4.498;2023-07-20T02:18:40;101514.03;;;17.54;100.00
72414;BME280;60995;52.154;4.498;2023-07-20T02:20:56;101512.94;;;17.39;100.00
72414;BME280;60995;52.154;4.498;2023-07-20T02:23:13;101514.84;;;17.46;100.00
72414;BME280;60995;52.154;4.498;2023-07-20T02:25:29;101517.88;;;17.35;100.00
72414;BME280;60995;52.154;4.498;2023-07-20T02:27:45;101507.56;;;17.20;100.00
72414;BME280;60995;52.154;4.498;2023-07-20T02:30:02;101518.34;;;17.22;100.00
72414;BME280;60995;52.154;4.498;2023-07-20T02:32:19;101517.34;;;17.23;100.00
72414;BME280;60995;52.154;4.498;2023-07-20T02:34:36;101517.38;;;17.31;100.00
72414;BME280;60995;52.154;4.498;2023-07-20T02:36:52;101519.31;;;17.39;100.00
72414;BME280;60995;52.154;4.498;2023-07-20T02:39:09;101517.94;;;17.43;100.00
72414;BME280;60995;52.154;4.498;2023-07-20T02:41:25;101519.06;;;17.32;100.00
72414;BME280;60995;52.154;4.498;2023-07-20T02:43:41;101524.38;;;17.26;100.00
72414;BME280;60995;52.154;4.498;2023-07-20T02:45:58;101524.63;;;17.06;100.00
72414;BME280;60995;52.154;4.498;2023-07-20T02:48:14;101524.28;;;16.83;100.00
72414;BME280;60995;52.154;4.498;2023-07-20T02:50:30;101523.88;;;16.69;100.00
72414;BME280;60995;52.154;4.498;2023-07-20T02:52:46;101520.75;;;16.64;100.00
72414;BME280;60995;52.154;4.498;2023-07-20T02:55:03;101513.78;;;16.70;100.00
72414;BME280;60995;52.154;4.498;2023-07-20T02:57:19;101528.94;;;16.56;100.00
72414;BME280;60995;52.154;4.498;2023-07-20T02:59:36;101533.63;;;16.46;100.00
72414;BME280;60995;52.154;4.498;2023-07-20T03:01:52;101536.78;;;16.33;100.00
72414;BME280;60995;52.154;4.498;2023-07-20T03:04:10;101533.72;;;16.36;100.00
72414;BME280;60995;52.154;4.498;2023-07-20T03:06:26;101547.91;;;16.31;100.00
72414;BME280;60995;52.154;4.498;2023-07-20T03:08:43;101547.66;;;16.43;100.00
72414;BME280;60995;52.154;4.498;2023-07-20T03:11:03;101548.84;;;16.22;100.00
72414;BME280;60995;52.154;4.498;2023-07-20T03:13:19;101551.88;;;16.19;100.00
72414;BME280;60995;52.154;4.498;2023-07-20T03:15:35;101559.88;;;16.12;100.00
72414;BME280;60995;52.154;4.498;2023-07-20T03:17:51;101553.94;;;15.99;100.00
72414;BME280;60995;52.154;4.498;2023-07-20T03:20:09;101556.84;;;15.97;100.00
72414;BME280;60995;52.154;4.498;2023-07-20T03:22:26;101565.72;;;15.99;100.00
72414;BME280;60995;52.154;4.498;2023-07-20T03:24:42;101566.28;;;16.03;100.00
72414;BME280;60995;52.154;4.498;2023-07-20T03:26:58;101569.91;;;16.03;100.00
72414;BME280;60995;52.154;4.498;2023-07-20T03:29:15;101569.91;;;16.03;100.00
72414;BME280;60995;52.154;4.498;2023-07-20T03:31:32;101578.88;;;16.14;100.00
72414;BME280;60995;52.154;4.498;2023-07-20T03:33:48;101575.75;;;16.09;100.00
72414;BME280;60995;52.154;4.498;2023-07-20T03:36:04;101575.91;;;16.07;100.00
72414;BME280;60995;52.154;4.498;2023-07-20T03:38:21;101583.44;;;16.23;100.00
72414;BME280;60995;52.154;4.498;2023-07-20T03:40:38;101587.31;;;16.38;100.00
72414;BME280;60995;52.154;4.498;2023-07-20T03:42:55;101582.22;;;16.44;100.00
72414;BME280;60995;52.154;4.498;2023-07-20T03:45:11;101594.28;;;16.51;100.00
72414;BME280;60995;52.154;4.498;2023-07-20T03:47:27;101584.41;;;16.58;100.00
72414;BME280;60995;52.154;4.498;2023-07-20T03:49:44;101587.59;;;16.72;100.00
72414;BME280;60995;52.154;4.498;2023-07-20T03:52:00;101584.91;;;16.80;100.00
72414;BME280;60995;52.154;4.498;2023-07-20T03:54:19;101588.59;;;16.89;100.00
72414;BME280;60995;52.154;4.498;2023-07-20T03:56:35;101583.22;;;17.05;100.00
72414;BME280;60995;52.154;4.498;2023-07-20T03:58:51;101586.03;;;17.13;100.00
72414;BME280;60995;52.154;4.498;2023-07-20T04:01:07;101578.47;;;17.15;100.00
72414;BME280;60995;52.154;4.498;2023-07-20T04:03:25;101581.28;;;17.24;100.00
72414;BME280;60995;52.154;4.498;2023-07-20T04:05:42;101574.97;;;17.31;100.00
72414;BME280;60995;52.154;4.498;2023-07-20T04:07:59;101578.47;;;17.42;100.00
72414;BME280;60995;52.154;4.498;2023-07-20T04:10:15;101568.69;;;17.47;100.00
72414;BME280;60995;52.154;4.498;2023-07-20T04:12:32;101568.41;;;17.59;100.00
72414;BME280;60995;52.154;4.498;2023-07-20T04:14:48;101565.44;;;17.52;100.00
72414;BME280;60995;52.154;4.498;2023-07-20T04:17:04;101564.44;;;17.53;100.00
72414;BME280;60995;52.154;4.498;2023-07-20T04:19:21;101567.69;;;17.48;100.00
72414;BME280;60995;52.154;4.498;2023-07-20T04:21:40;101566.69;;;17.58;100.00
72414;BME280;60995;52.154;4.498;2023-07-20T04:23:57;101568.25;;;17.68;100.00
72414;BME280;60995;52.154;4.498;2023-07-20T04:26:13;101568.44;;;17.75;100.00
72414;BME280;60995;52.154;4.498;2023-07-20T04:28:30;101563.03;;;17.49;100.00
72414;BME280;60995;52.154;4.498;2023-07-20T04:30:48;101561.19;;;17.58;100.00
72414;BME280;60995;52.154;4.498;2023-07-20T04:33:07;101572.63;;;17.45;100.00
72414;BME280;60995;52.154;4.498;2023-07-20T04:38:07;101569.69;;;17.89;100.00
72414;BME280;60995;52.154;4.498;2023-07-20T04:40:23;101578.69;;;18.08;100.00
72414;BME280;60995;52.154;4.498;2023-07-20T04:42:40;101569.25;;;18.02;100.00
72414;BME280;60995;52.154;4.498;2023-07-20T04:44:56;101573.53;;;18.21;100.00
72414;BME280;60995;52.154;4.498;2023-07-20T04:47:12;101577.47;;;18.10;100.00
72414;BME280;60995;52.154;4.498;2023-07-20T04:49:28;101569.94;;;18.29;100.00
72414;BME280;60995;52.154;4.498;2023-07-20T04:51:45;101565.66;;;18.43;100.00
72414;BME280;60995;52.154;4.498;2023-07-20T04:54:01;101562.91;;;18.43;100.00
72414;BME280;60995;52.154;4.498;2023-07-20T04:56:18;101569.09;;;18.45;100.00
72414;BME280;60995;52.154;4.498;2023-07-20T04:58:34;101566.31;;;18.12;100.00
72414;BME280;60995;52.154;4.498;2023-07-20T05:00:51;101567.38;;;18.44;100.00
72414;BME280;60995;52.154;4.498;2023-07-20T05:03:07;101566.34;;;18.53;100.00
72414;BME280;60995;52.154;4.498;2023-07-20T05:05:24;101564.75;;;17.93;100.00
72414;BME280;60995;52.154;4.498;2023-07-20T05:07:40;101565.97;;;18.07;100.00
72414;BME280;60995;52.154;4.498;2023-07-20T05:09:56;101561.53;;;18.06;100.00
72414;BME280;60995;52.154;4.498;2023-07-20T05:12:12;101564.09;;;18.15;100.00
72414;BME280;60995;52.154;4.498;2023-07-20T05:14:29;101556.38;;;18.19;100.00
72414;BME280;60995;52.154;4.498;2023-07-20T05:16:48;101563.94;;;18.33;100.00
72414;BME280;60995;52.154;4.498;2023-07-20T05:19:04;101565.66;;;18.59;100.00
72414;BME280;60995;52.154;4.498;2023-07-20T05:21:21;101559.09;;;18.77;100.00
72414;BME280;60995;52.154;4.498;2023-07-20T05:23:37;101558.53;;;19.14;100.00
72414;BME280;60995;52.154;4.498;2023-07-20T05:25:57;101552.66;;;19.26;95.89
72414;BME280;60995;52.154;4.498;2023-07-20T05:28:14;101557.75;;;19.77;97.74
72414;BME280;60995;52.154;4.498;2023-07-20T05:30:31;101540.91;;;21.84;89.99
72414;BME280;60995;52.154;4.498;2023-07-20T05:32:47;101551.16;;;23.95;76.59
72414;BME280;60995;52.154;4.498;2023-07-20T05:35:07;101546.38;;;25.57;60.31
72414;BME280;60995;52.154;4.498;2023-07-20T05:37:24;101542.78;;;27.03;50.92
72414;BME280;60995;52.154;4.498;2023-07-20T05:39:41;101542.63;;;28.57;47.59
72414;BME280;60995;52.154;4.498;2023-07-20T05:41:57;101545.69;;;28.91;42.09
72414;BME280;60995;52.154;4.498;2023-07-20T05:44:13;101535.94;;;30.27;38.33
72414;BME280;60995;52.154;4.498;2023-07-20T05:46:29;101539.13;;;31.43;35.42
72414;BME280;60995;52.154;4.498;2023-07-20T05:48:46;101532.06;;;31.85;33.30
72414;BME280;60995;52.154;4.498;2023-07-20T05:51:02;101534.91;;;31.63;32.95
72414;BME280;60995;52.154;4.498;2023-07-20T05:53:18;101531.09;;;31.30;34.08
72414;BME280;60995;52.154;4.498;2023-07-20T05:55:34;101536.06;;;31.67;33.59
72414;BME280;60995;52.154;4.498;2023-07-20T05:57:51;101528.88;;;31.76;32.67
72414;BME280;60995;52.154;4.498;2023-07-20T06:00:08;101540.66;;;32.33;31.84
72414;BME280;60995;52.154;4.498;2023-07-20T06:02:25;101536.22;;;33.18;30.35
72414;BME280;60995;52.154;4.498;2023-07-20T06:04:41;101530.03;;;31.80;32.03
72414;BME280;60995;52.154;4.498;2023-07-20T06:06:57;101539.13;;;29.20;36.34
72414;BME280;60995;52.154;4.498;2023-07-20T06:09:14;101522.94;;;29.75;35.54
72414;BME280;60995;52.154;4.498;2023-07-20T06:11:31;101521.59;;;32.35;32.13
72414;BME280;60995;52.154;4.498;2023-07-20T06:13:47;101531.94;;;33.68;29.80
72414;BME280;60995;52.154;4.498;2023-07-20T06:16:04;101521.81;;;32.98;29.57
72414;BME280;60995;52.154;4.498;2023-07-20T06:18:21;101525.81;;;33.87;28.61
72414;BME280;60995;52.154;4.498;2023-07-20T06:20:38;101517.94;;;34.82;27.39
72414;BME280;60995;52.154;4.498;2023-07-20T06:22:55;101530.44;;;33.40;28.32
72414;BME280;60995;52.154;4.498;2023-07-20T06:25:11;101534.56;;;30.98;31.82
72414;BME280;60995;52.154;4.498;2023-07-20T06:27:27;101532.59;;;33.91;28.60
72414;BME280;60995;52.154;4.498;2023-07-20T06:29:47;101537.13;;;34.23;28.13
72414;BME280;60995;52.154;4.498;2023-07-20T06:32:04;101535.72;;;35.68;25.83
72414;BME280;60995;52.154;4.498;2023-07-20T06:34:21;101532.66;;;34.63;27.30
72414;BME280;60995;52.154;4.498;2023-07-20T06:36:37;101540.63;;;32.98;30.26
72414;BME280;60995;52.154;4.498;2023-07-20T06:38:56;101538.25;;;35.70;26.25
72414;BME280;60995;52.154;4.498;2023-07-20T06:41:13;101536.59;;;37.31;24.11
72414;BME280;60995;52.154;4.498;2023-07-20T06:43:29;101539.75;;;36.02;25.46
72414;BME280;60995;52.154;4.498;2023-07-20T06:45:51;101543.88;;;34.11;27.36
72414;BME280;60995;52.154;4.498;2023-07-20T06:48:11;101538.25;;;30.47;33.46
72414;BME280;60995;52.154;4.498;2023-07-20T06:50:27;101544.91;;;31.59;31.80
72414;BME280;60995;52.154;4.498;2023-07-20T06:52:44;101540.16;;;33.22;29.09
72414;BME280;60995;52.154;4.498;2023-07-20T06:55:00;101536.44;;;33.59;28.70
72414;BME280;60995;52.154;4.498;2023-07-20T06:57:17;101531.88;;;35.99;24.58
72414;BME280;60995;52.154;4.498;2023-07-20T06:59:33;101531.78;;;37.32;23.20
72414;BME280;60995;52.154;4.498;2023-07-20T07:01:50;101536.84;;;37.35;23.04
72414;BME280;60995;52.154;4.498;2023-07-20T07:04:06;101535.41;;;36.20;24.20
72414;BME280;60995;52.154;4.498;2023-07-20T07:06:22;101546.28;;;37.68;22.80
72414;BME280;60995;52.154;4.498;2023-07-20T07:08:39;101541.16;;;36.04;23.94
72414;BME280;60995;52.154;4.498;2023-07-20T07:10:55;101546.38;;;35.87;24.33
72414;BME280;60995;52.154;4.498;2023-07-20T07:13:11;101538.03;;;37.04;22.71
72414;BME280;60995;52.154;4.498;2023-07-20T07:15:27;101535.31;;;36.35;23.92
72414;BME280;60995;52.154;4.498;2023-07-20T07:17:44;101539.34;;;35.08;24.77
72414;BME280;60995;52.154;4.498;2023-07-20T07:20:00;101537.59;;;35.23;24.83
72414;BME280;60995;52.154;4.498;2023-07-20T07:22:16;101549.44;;;33.80;26.75
72414;BME280;60995;52.154;4.498;2023-07-20T07:24:33;101542.19;;;35.03;25.87
72414;BME280;60995;52.154;4.498;2023-07-20T07:26:52;101543.63;;;35.66;24.71
72414;BME280;60995;52.154;4.498;2023-07-20T07:29:08;101540.41;;;36.92;22.97
72414;BME280;60995;52.154;4.498;2023-07-20T07:31:29;101542.00;;;36.45;23.03
72414;BME280;60995;52.154;4.498;2023-07-20T07:33:46;101550.94;;;35.77;24.14
72414;BME280;60995;52.154;4.498;2023-07-20T07:36:02;101548.63;;;30.64;31.38
72414;BME280;60995;52.154;4.498;2023-07-20T07:38:19;101555.38;;;29.24;34.14
72414;BME280;60995;52.154;4.498;2023-07-20T07:40:35;101562.59;;;27.99;35.78
72414;BME280;60995;52.154;4.498;2023-07-20T07:42:51;101559.97;;;25.72;40.70
72414;BME280;60995;52.154;4.498;2023-07-20T07:45:08;101567.81;;;25.30;43.45
72414;BME280;60995;52.154;4.498;2023-07-20T07:47:24;101567.91;;;24.76;46.06
72414;BME280;60995;52.154;4.498;2023-07-20T07:49:41;101571.03;;;24.26;47.68
72414;BME280;60995;52.154;4.498;2023-07-20T07:51:57;101570.41;;;24.17;48.51
72414;BME280;60995;52.154;4.498;2023-07-20T07:54:14;101569.84;;;23.80;50.14
72414;BME280;60995;52.154;4.498;2023-07-20T07:56:30;101566.31;;;23.51;52.71
72414;BME280;60995;52.154;4.498;2023-07-20T07:58:47;101568.13;;;23.31;54.04
72414;BME280;60995;52.154;4.498;2023-07-20T08:01:03;101563.94;;;23.41;54.67
72414;BME280;60995;52.154;4.498;2023-07-20T08:03:20;101566.47;;;23.08;55.95
72414;BME280;60995;52.154;4.498;2023-07-20T08:05:37;101573.00;;;22.93;57.62
72414;BME280;60995;52.154;4.498;2023-07-20T08:07:53;101569.72;;;23.11;56.77
72414;BME280;60995;52.154;4.498;2023-07-20T08:10:10;101570.84;;;24.54;53.36
72414;BME280;60995;52.154;4.498;2023-07-20T08:12:26;101578.84;;;27.35;43.43
72414;BME280;60995;52.154;4.498;2023-07-20T08:14:43;101565.25;;;30.54;35.20
72414;BME280;60995;52.154;4.498;2023-07-20T08:16:59;101558.91;;;33.54;29.45
72414;BME280;60995;52.154;4.498;2023-07-20T08:19:15;101560.78;;;34.94;26.12
72414;BME280;60995;52.154;4.498;2023-07-20T08:21:31;101561.25;;;33.77;26.94
72414;BME280;60995;52.154;4.498;2023-07-20T08:23:48;101550.91;;;34.14;26.16
72414;BME280;60995;52.154;4.498;2023-07-20T08:26:04;101552.59;;;35.78;24.48
72414;BME280;60995;52.154;4.498;2023-07-20T08:28:20;101557.72;;;35.71;24.23
72414;BME280;60995;52.154;4.498;2023-07-20T08:30:47;101548.59;;;35.90;23.04
72414;BME280;60995;52.154;4.498;2023-07-20T08:33:04;101552.03;;;36.61;22.47
72414;BME280;60995;52.154;4.498;2023-07-20T08:35:21;101557.66;;;36.26;22.84
72414;BME280;60995;52.154;4.498;2023-07-20T08:37:37;101556.59;;;37.40;22.23
72414;BME280;60995;52.154;4.498;2023-07-20T08:39:53;101553.47;;;34.77;24.29
72414;BME280;60995;52.154;4.498;2023-07-20T08:42:10;101562.53;;;32.26;26.70
72414;BME280;60995;52.154;4.498;2023-07-20T08:44:26;101572.09;;;30.46;29.79
72414;BME280;60995;52.154;4.498;2023-07-20T08:46:43;101567.44;;;30.68;30.08
72414;BME280;60995;52.154;4.498;2023-07-20T08:49:01;101562.00;;;29.99;31.07
72414;BME280;60995;52.154;4.498;2023-07-20T08:51:19;101563.53;;;28.23;33.56
72414;BME280;60995;52.154;4.498;2023-07-20T08:53:37;101573.34;;;27.28;35.91
72414;BME280;60995;52.154;4.498;2023-07-20T08:55:53;101561.16;;;29.58;31.28
72414;BME280;60995;52.154;4.498;2023-07-20T08:58:12;101557.50;;;32.65;27.77
72414;BME280;60995;52.154;4.498;2023-07-20T09:00:30;101556.28;;;35.79;23.24
72414;BME280;60995;52.154;4.498;2023-07-20T09:02:52;101560.94;;;36.73;22.32
72414;BME280;60995;52.154;4.498;2023-07-20T09:05:09;101553.13;;;37.43;21.05
72414;BME280;60995;52.154;4.498;2023-07-20T09:07:25;101558.38;;;37.31;20.69
72414;BME280;60995;52.154;4.498;2023-07-20T09:09:42;101560.47;;;36.66;20.46
72414;BME280;60995;52.154;4.498;2023-07-20T09:11:58;101560.59;;;37.10;20.98
72414;BME280;60995;52.154;4.498;2023-07-20T09:14:15;101564.34;;;37.72;20.26
72414;BME280;60995;52.154;4.498;2023-07-20T09:16:31;101554.56;;;38.41;19.38
72414;BME280;60995;52.154;4.498;2023-07-20T09:18:48;101549.78;;;39.02;18.60
72414;BME280;60995;52.154;4.498;2023-07-20T09:21:05;101542.91;;;39.59;18.06
72414;BME280;60995;52.154;4.498;2023-07-20T09:23:30;101542.53;;;39.10;18.37
72414;BME280;60995;52.154;4.498;2023-07-20T09:25:50;101544.06;;;39.86;18.32
72414;BME280;60995;52.154;4.498;2023-07-20T09:28:07;101552.38;;;39.68;18.56
72414;BME280;60995;52.154;4.498;2023-07-20T09:30:26;101548.84;;;40.67;16.58
72414;BME280;60995;52.154;4.498;2023-07-20T09:32:45;101552.06;;;38.53;19.51
72414;BME280;60995;52.154;4.498;2023-07-20T09:35:03;101552.78;;;35.48;21.33
72414;BME280;60995;52.154;4.498;2023-07-20T09:37:22;101558.91;;;36.50;20.58
72414;BME280;60995;52.154;4.498;2023-07-20T09:39:46;101551.66;;;36.38;20.59
72414;BME280;60995;52.154;4.498;2023-07-20T09:42:03;101551.00;;;37.30;19.38
72414;BME280;60995;52.154;4.498;2023-07-20T09:44:20;101550.81;;;35.33;21.68
72414;BME280;60995;52.154;4.498;2023-07-20T09:46:47;101545.00;;;34.26;22.92
72414;BME280;60995;52.154;4.498;2023-07-20T09:49:08;101543.75;;;36.40;21.41
72414;BME280;60995;52.154;4.498;2023-07-20T09:51:24;101546.06;;;35.88;21.83
72414;BME280;60995;52.154;4.498;2023-07-20T09:53:41;101548.84;;;33.68;24.29
72414;BME280;60995;52.154;4.498;2023-07-20T09:55:58;101544.28;;;33.57;24.09
72414;BME280;60995;52.154;4.498;2023-07-20T09:58:15;101541.84;;;32.10;25.88
72414;BME280;60995;52.154;4.498;2023-07-20T10:00:35;101538.38;;;30.92;27.70
72414;BME280;60995;52.154;4.498;2023-07-20T10:02:53;101535.75;;;31.91;26.76
72414;BME280;60995;52.154;4.498;2023-07-20T10:05:13;101548.56;;;31.81;27.27
72414;BME280;60995;52.154;4.498;2023-07-20T10:07:31;101541.16;;;32.25;26.51
72414;BME280;60995;52.154;4.498;2023-07-20T10:09:51;101547.28;;;32.87;26.17
72414;BME280;60995;52.154;4.498;2023-07-20T10:12:09;101550.22;;;29.97;29.62
72414;BME280;60995;52.154;4.498;2023-07-20T10:14:28;101552.50;;;28.71;31.83
72414;BME280;60995;52.154;4.498;2023-07-20T10:16:55;101552.22;;;29.32;31.46
72414;BME280;60995;52.154;4.498;2023-07-20T10:19:23;101559.81;;;29.60;30.74
72414;BME280;60995;52.154;4.498;2023-07-20T10:21:54;101553.66;;;31.40;28.99
72414;BME280;60995;52.154;4.498;2023-07-20T10:24:16;101550.84;;;31.84;28.24
72414;BME280;60995;52.154;4.498;2023-07-20T10:26:34;101545.28;;;31.90;27.52
72414;BME280;60995;52.154;4.498;2023-07-20T10:28:50;101547.81;;;34.10;25.16
72414;BME280;60995;52.154;4.498;2023-07-20T10:31:09;101548.22;;;35.52;23.06
72414;BME280;60995;52.154;4.498;2023-07-20T10:33:27;101556.47;;;33.73;24.56
72414;BME280;60995;52.154;4.498;2023-07-20T10:35:55;101550.19;;;33.02;26.32
72414;BME280;60995;52.154;4.498;2023-07-20T10:38:18;101552.34;;;34.17;24.54
72414;BME280;60995;52.154;4.498;2023-07-20T10:40:38;101548.53;;;30.59;29.25
72414;BME280;60995;52.154;4.498;2023-07-20T10:42:59;101549.38;;;32.31;27.10
72414;BME280;60995;52.154;4.498;2023-07-20T10:45:18;101545.75;;;33.75;26.08
72414;BME280;60995;52.154;4.498;2023-07-20T10:47:45;101544.63;;;35.96;22.68
72414;BME280;60995;52.154;4.498;2023-07-20T10:50:02;101549.41;;;33.65;24.50
72414;BME280;60995;52.154;4.498;2023-07-20T10:52:18;101544.47;;;34.70;23.55
72414;BME280;60995;52.154;4.498;2023-07-20T10:54:46;101539.78;;;33.51;25.22
72414;BME280;60995;52.154;4.498;2023-07-20T10:59:48;101537.34;;;33.17;25.34
72414;BME280;60995;52.154;4.498;2023-07-20T11:02:08;101535.84;;;33.57;25.45
72414;BME280;60995;52.154;4.498;2023-07-20T11:04:41;101543.19;;;32.02;27.26
72414;BME280;60995;52.154;4.498;2023-07-20T11:06:57;101535.78;;;33.41;25.36
72414;BME280;60995;52.154;4.498;2023-07-20T11:09:14;101527.28;;;34.15;24.55
72414;BME280;60995;52.154;4.498;2023-07-20T11:11:34;101538.19;;;33.80;24.47
72414;BME280;60995;52.154;4.498;2023-07-20T11:16:11;101533.03;;;33.57;24.37
72414;BME280;60995;52.154;4.498;2023-07-20T11:18:28;101529.94;;;33.48;24.84
72414;BME280;60995;52.154;4.498;2023-07-20T11:20:50;101524.56;;;33.52;25.07
72414;BME280;60995;52.154;4.498;2023-07-20T11:23:07;101525.72;;;32.60;26.38
72414;BME280;60995;52.154;4.498;2023-07-20T11:25:25;101527.19;;;33.10;25.66
72414;BME280;60995;52.154;4.498;2023-07-20T11:27:45;101519.66;;;33.85;24.45
72414;BME280;60995;52.154;4.498;2023-07-20T11:30:02;101525.06;;;31.88;26.97
72414;BME280;60995;52.154;4.498;2023-07-20T11:32:23;101530.56;;;32.05;26.42
72414;BME280;60995;52.154;4.498;2023-07-20T11:34:47;101526.63;;;33.08;25.30
72414;BME280;60995;52.154;4.498;2023-07-20T11:37:05;101512.84;;;33.07;25.73
72414;BME280;60995;52.154;4.498;2023-07-20T11:39:22;101518.34;;;33.39;24.76
72414;BME280;60995;52.154;4.498;2023-07-20T11:41:50;101511.09;;;33.01;25.56
72414;BME280;60995;52.154;4.498;2023-07-20T11:44:11;101512.72;;;32.48;25.96
72414;BME280;60995;52.154;4.498;2023-07-20T11:46:29;101508.06;;;32.27;26.10
72414;BME280;60995;52.154;4.498;2023-07-20T11:48:45;101519.53;;;31.98;26.60
72414;BME280;60995;52.154;4.498;2023-07-20T11:51:01;101514.50;;;32.60;25.75
72414;BME280;60995;52.154;4.498;2023-07-20T11:53:18;101514.84;;;32.31;26.07
72414;BME280;60995;52.154;4.498;2023-07-20T11:55:35;101516.03;;;30.97;28.14
72414;BME280;60995;52.154;4.498;2023-07-20T11:58:05;101518.59;;;29.96;29.39
72414;BME280;60995;52.154;4.498;2023-07-20T12:00:24;101506.94;;;29.59;30.48
72414;BME280;60995;52.154;4.498;2023-07-20T12:02:40;101511.03;;;29.68;30.01
72414;BME280;60995;52.154;4.498;2023-07-20T12:04:57;101519.53;;;29.73;29.86
72414;BME280;60995;52.154;4.498;2023-07-20T12:07:14;101512.84;;;29.45;30.65
72414;BME280;60995;52.154;4.498;2023-07-20T12:09:30;101516.16;;;30.00;30.08